createdAt,value
2023-05-21T00:00:58.239Z,94812.00
2023-05-21T00:01:58.262Z,94812.00
2023-05-21T00:02:58.347Z,94814.00
2023-05-21T00:03:58.371Z,94816.00
2023-05-21T00:04:58.263Z,94816.00
2023-05-21T00:05:58.282Z,94814.00
2023-05-21T00:06:58.285Z,94814.00
2023-05-21T00:07:58.274Z,94818.00
2023-05-21T00:08:58.264Z,94814.00
2023-05-21T00:09:58.304Z,94816.00
2023-05-21T00:10:58.324Z,94814.00
2023-05-21T00:11:58.356Z,94814.00
2023-05-21T00:12:58.456Z,94810.00
2023-05-21T00:13:58.502Z,94814.00
2023-05-21T00:14:58.580Z,94808.00
2023-05-21T00:15:58.680Z,94810.00
2023-05-21T00:16:58.626Z,94810.00
2023-05-21T00:17:58.678Z,94810.00
2023-05-21T00:18:58.763Z,94814.00
2023-05-21T00:19:58.637Z,94810.00
2023-05-21T00:20:58.645Z,94810.00
2023-05-21T00:21:58.613Z,94808.00
2023-05-21T00:22:58.646Z,94810.00
2023-05-21T00:23:58.631Z,94810.00
2023-05-21T00:24:58.682Z,94808.00
2023-05-21T00:25:58.674Z,94808.00
2023-05-21T00:26:58.703Z,94808.00
2023-05-21T00:27:58.658Z,94808.00
2023-05-21T00:28:58.683Z,94808.00
2023-05-21T00:29:58.696Z,94808.00
2023-05-21T00:30:58.692Z,94808.00
2023-05-21T00:31:58.712Z,94812.00
2023-05-21T00:32:58.872Z,94814.00
2023-05-21T00:33:58.704Z,94816.00
2023-05-21T00:34:58.733Z,94816.00
2023-05-21T00:35:58.749Z,94816.00
2023-05-21T00:36:58.744Z,94814.00
2023-05-21T00:37:58.745Z,94816.00
2023-05-21T00:38:58.766Z,94814.00
2023-05-21T00:39:58.781Z,94812.00
2023-05-21T00:40:58.762Z,94812.00
2023-05-21T00:41:58.762Z,94810.00
2023-05-21T00:42:58.755Z,94808.00
2023-05-21T00:43:58.800Z,94808.00
2023-05-21T00:44:58.805Z,94806.00
2023-05-21T00:45:58.889Z,94806.00
2023-05-21T00:46:58.836Z,94804.00
2023-05-21T00:47:58.854Z,94806.00
2023-05-21T00:48:58.827Z,94814.00
2023-05-21T00:49:58.832Z,94816.00
2023-05-21T00:50:58.839Z,94816.00
2023-05-21T00:51:58.843Z,94814.00
2023-05-21T00:52:58.859Z,94812.00
2023-05-21T00:53:58.872Z,94810.00
2023-05-21T00:54:58.889Z,94810.00
2023-05-21T00:55:58.892Z,94810.00
2023-05-21T00:56:58.891Z,94810.00
2023-05-21T00:57:58.891Z,94808.00
2023-05-21T00:58:58.904Z,94808.00
2023-05-21T00:59:58.926Z,94812.00
2023-05-21T01:00:58.970Z,94814.00
2023-05-21T01:01:58.969Z,94814.00
2023-05-21T01:02:59.022Z,94814.00
2023-05-21T01:03:58.926Z,94816.00
2023-05-21T01:04:58.942Z,94814.00
2023-05-21T01:05:58.925Z,94810.00
2023-05-21T01:06:58.938Z,94808.00
2023-05-21T01:07:58.962Z,94808.00
2023-05-21T01:08:58.942Z,94804.00
2023-05-21T01:09:58.964Z,94806.00
2023-05-21T01:10:58.934Z,94804.00
2023-05-21T01:11:58.950Z,94804.00
2023-05-21T01:12:59.002Z,94804.00
2023-05-21T01:13:58.985Z,94804.00
2023-05-21T01:14:58.968Z,94810.00
2023-05-21T01:15:58.986Z,94806.00
2023-05-21T01:16:59.063Z,94804.00
2023-05-21T01:17:59.069Z,94800.00
2023-05-21T01:18:59.080Z,94796.00
2023-05-21T01:19:59.038Z,94796.00
2023-05-21T01:20:59.037Z,94796.00
2023-05-21T01:21:59.067Z,94796.00
2023-05-21T01:22:59.056Z,94800.00
2023-05-21T01:23:59.021Z,94798.00
2023-05-21T01:24:59.036Z,94798.00
2023-05-21T01:25:59.087Z,94798.00
2023-05-21T01:26:59.066Z,94798.00
2023-05-21T01:27:59.070Z,94798.00
2023-05-21T01:28:59.121Z,94796.00
2023-05-21T01:29:59.115Z,94798.00
2023-05-21T01:30:59.115Z,94804.00
2023-05-21T01:31:59.855Z,94806.00
2023-05-21T01:32:59.201Z,94806.00
2023-05-21T01:33:59.197Z,94804.00
2023-05-21T01:34:59.145Z,94800.00
2023-05-21T01:35:59.152Z,94796.00
2023-05-21T01:36:59.165Z,94794.00
2023-05-21T01:37:59.259Z,94796.00
2023-05-21T01:38:59.175Z,94794.00
2023-05-21T01:39:59.184Z,94798.00
2023-05-21T01:40:59.181Z,94798.00
2023-05-21T01:41:59.197Z,94796.00
2023-05-21T01:42:59.193Z,94796.00
2023-05-21T01:43:59.164Z,94796.00
2023-05-21T01:44:59.241Z,94794.00
2023-05-21T01:45:59.252Z,94792.00
2023-05-21T01:46:59.228Z,94792.00
2023-05-21T01:47:59.298Z,94792.00
2023-05-21T01:48:59.202Z,94790.00
2023-05-21T01:49:59.252Z,94790.00
2023-05-21T01:50:59.253Z,94786.00
2023-05-21T01:51:59.249Z,94790.00
2023-05-21T01:52:59.246Z,94788.00
2023-05-21T01:53:59.315Z,94784.00
2023-05-21T01:54:59.379Z,94784.00
2023-05-21T01:55:59.450Z,94784.00
2023-05-21T01:56:59.458Z,94786.00
2023-05-21T01:58:02.031Z,94786.00
2023-05-21T01:58:59.604Z,94786.00
2023-05-21T01:59:59.482Z,94786.00
2023-05-21T02:00:59.528Z,94788.00
2023-05-21T02:01:59.481Z,94790.00
2023-05-21T02:02:59.560Z,94794.00
2023-05-21T02:03:59.500Z,94794.00
2023-05-21T02:04:59.491Z,94788.00
2023-05-21T02:05:59.480Z,94792.00
2023-05-21T02:06:59.420Z,94790.00
2023-05-21T02:07:59.470Z,94788.00
2023-05-21T02:08:59.440Z,94792.00
2023-05-21T02:09:59.440Z,94792.00
2023-05-21T02:10:59.427Z,94796.00
2023-05-21T02:11:59.417Z,94796.00
2023-05-21T02:12:59.404Z,94798.00
2023-05-21T02:13:59.410Z,94800.00
2023-05-21T02:14:59.430Z,94800.00
2023-05-21T02:15:59.464Z,94800.00
2023-05-21T02:16:59.376Z,94804.00
2023-05-21T02:17:59.420Z,94798.00
2023-05-21T02:18:59.404Z,94800.00
2023-05-21T02:19:59.374Z,94798.00
2023-05-21T02:20:59.350Z,94800.00
2023-05-21T02:21:59.336Z,94802.00
2023-05-21T02:22:59.326Z,94804.00
2023-05-21T02:23:59.355Z,94806.00
2023-05-21T02:24:59.335Z,94808.00
2023-05-21T02:25:59.355Z,94806.00
2023-05-21T02:26:59.327Z,94804.00
2023-05-21T02:27:59.310Z,94804.00
2023-05-21T02:28:59.310Z,94800.00
2023-05-21T02:29:59.317Z,94800.00
2023-05-21T02:30:59.275Z,94798.00
2023-05-21T02:31:59.301Z,94798.00
2023-05-21T02:32:59.345Z,94798.00
2023-05-21T02:33:59.308Z,94794.00
2023-05-21T02:34:59.298Z,94792.00
2023-05-21T02:35:59.260Z,94794.00
2023-05-21T02:36:59.238Z,94794.00
2023-05-21T02:37:59.408Z,94790.00
2023-05-21T02:38:59.229Z,94788.00
2023-05-21T02:39:59.246Z,94786.00
2023-05-21T02:40:59.221Z,94786.00
2023-05-21T02:41:59.202Z,94788.00
2023-05-21T02:42:59.203Z,94786.00
2023-05-21T02:43:59.201Z,94784.00
2023-05-21T02:44:59.212Z,94782.00
2023-05-21T02:45:59.267Z,94782.00
2023-05-21T02:47:00.346Z,94781.00
2023-05-21T02:47:59.232Z,94784.00
2023-05-21T02:48:59.182Z,94781.00
2023-05-21T02:49:59.161Z,94779.00
2023-05-21T02:50:59.174Z,94779.00
2023-05-21T02:51:59.163Z,94777.00
2023-05-21T02:52:59.124Z,94779.00
2023-05-21T02:53:59.132Z,94781.00
2023-05-21T02:54:59.145Z,94782.00
2023-05-21T02:55:59.138Z,94786.00
2023-05-21T02:56:59.101Z,94786.00
2023-05-21T02:57:59.104Z,94784.00
2023-05-21T02:58:59.080Z,94782.00
2023-05-21T02:59:59.087Z,94782.00
2023-05-21T03:00:59.159Z,94784.00
2023-05-21T03:01:59.143Z,94784.00
2023-05-21T03:02:59.100Z,94784.00
2023-05-21T03:03:59.079Z,94782.00
2023-05-21T03:04:59.077Z,94784.00
2023-05-21T03:05:59.083Z,94788.00
2023-05-21T03:06:59.066Z,94790.00
2023-05-21T03:07:59.059Z,94790.00
2023-05-21T03:08:59.052Z,94792.00
2023-05-21T03:09:59.023Z,94788.00
2023-05-21T03:10:59.054Z,94790.00
2023-05-21T03:11:59.032Z,94792.00
2023-05-21T03:12:59.018Z,94794.00
2023-05-21T03:13:59.027Z,94794.00
2023-05-21T03:14:59.003Z,94792.00
2023-05-21T03:15:59.016Z,94790.00
2023-05-21T03:16:59.061Z,94794.00
2023-05-21T03:17:59.028Z,94798.00
2023-05-21T03:18:59.024Z,94796.00
2023-05-21T03:19:58.990Z,94800.00
2023-05-21T03:20:59.012Z,94794.00
2023-05-21T03:21:58.942Z,94794.00
2023-05-21T03:22:58.959Z,94796.00
2023-05-21T03:23:58.973Z,94802.00
2023-05-21T03:24:58.969Z,94804.00
2023-05-21T03:25:58.907Z,94800.00
2023-05-21T03:26:58.916Z,94796.00
2023-05-21T03:27:58.933Z,94796.00
2023-05-21T03:28:58.920Z,94792.00
2023-05-21T03:29:58.919Z,94798.00
2023-05-21T03:30:58.908Z,94796.00
2023-05-21T03:31:58.965Z,94798.00
2023-05-21T03:32:58.933Z,94796.00
2023-05-21T03:33:58.860Z,94796.00
2023-05-21T03:34:58.858Z,94796.00
2023-05-21T03:35:58.890Z,94798.00
2023-05-21T03:36:58.857Z,94798.00
2023-05-21T03:37:58.856Z,94800.00
2023-05-21T03:38:58.871Z,94798.00
2023-05-21T03:39:58.851Z,94804.00
2023-05-21T03:40:58.819Z,94804.00
2023-05-21T03:41:58.823Z,94810.00
2023-05-21T03:42:58.816Z,94810.00
2023-05-21T03:43:58.815Z,94810.00
2023-05-21T03:44:58.791Z,94808.00
2023-05-21T03:45:58.853Z,94810.00
2023-05-21T03:46:58.796Z,94812.00
2023-05-21T03:47:58.926Z,94806.00
2023-05-21T03:48:58.836Z,94806.00
2023-05-21T03:49:58.831Z,94806.00
2023-05-21T03:50:58.877Z,94804.00
2023-05-21T03:51:58.863Z,94806.00
2023-05-21T03:52:58.896Z,94806.00
2023-05-21T03:53:58.914Z,94806.00
2023-05-21T03:54:58.930Z,94806.00
2023-05-21T03:55:58.931Z,94804.00
2023-05-21T03:56:59.932Z,94806.00
2023-05-21T03:57:58.976Z,94810.00
2023-05-21T03:58:59.002Z,94812.00
2023-05-21T03:59:59.058Z,94810.00
2023-05-21T04:00:59.155Z,94806.00
2023-05-21T04:01:59.020Z,94800.00
2023-05-21T04:02:59.108Z,94804.00
2023-05-21T04:03:59.124Z,94814.00
2023-05-21T04:04:59.054Z,94818.00
2023-05-21T04:05:59.050Z,94814.00
2023-05-21T04:06:59.062Z,94810.00
2023-05-21T04:07:59.085Z,94810.00
2023-05-21T04:08:59.119Z,94818.00
2023-05-21T04:09:59.102Z,94820.00
2023-05-21T04:10:59.097Z,94820.00
2023-05-21T04:11:59.105Z,94812.00
2023-05-21T04:12:59.142Z,94804.00
2023-05-21T04:13:59.139Z,94808.00
2023-05-21T04:14:59.182Z,94820.00
2023-05-21T04:15:59.212Z,94829.00
2023-05-21T04:16:59.203Z,94833.00
2023-05-21T04:17:59.253Z,94835.00
2023-05-21T04:18:59.210Z,94829.00
2023-05-21T04:19:59.192Z,94826.00
2023-05-21T04:20:59.255Z,94822.00
2023-05-21T04:21:59.245Z,94829.00
2023-05-21T04:22:59.258Z,94837.00
2023-05-21T04:23:59.260Z,94843.00
2023-05-21T04:24:59.257Z,94843.00
2023-05-21T04:25:59.288Z,94845.00
2023-05-21T04:26:59.279Z,94839.00
2023-05-21T04:27:59.253Z,94835.00
2023-05-21T04:28:59.255Z,94835.00
2023-05-21T04:29:59.311Z,94837.00
2023-05-21T04:30:59.349Z,94839.00
2023-05-21T04:31:59.423Z,94847.00
2023-05-21T04:32:59.385Z,94843.00
2023-05-21T04:33:59.332Z,94841.00
2023-05-21T04:34:59.334Z,94837.00
2023-05-21T04:35:59.374Z,94833.00
2023-05-21T04:36:59.357Z,94831.00
2023-05-21T04:37:59.366Z,94833.00
2023-05-21T04:38:59.382Z,94831.00
2023-05-21T04:39:59.376Z,94831.00
2023-05-21T04:40:59.402Z,94833.00
2023-05-21T04:41:59.441Z,94835.00
2023-05-21T04:42:59.405Z,94835.00
2023-05-21T04:43:59.456Z,94831.00
2023-05-21T04:44:59.544Z,94828.00
2023-05-21T04:45:59.455Z,94824.00
2023-05-21T04:46:59.446Z,94826.00
2023-05-21T04:47:59.504Z,94829.00
2023-05-21T04:48:59.487Z,94829.00
2023-05-21T04:49:59.490Z,94828.00
2023-05-21T04:50:59.491Z,94829.00
2023-05-21T04:51:59.488Z,94831.00
2023-05-21T04:52:59.545Z,94831.00
2023-05-21T04:53:59.610Z,94829.00
2023-05-21T04:54:59.551Z,94826.00
2023-05-21T04:55:59.515Z,94826.00
2023-05-21T04:56:59.518Z,94822.00
2023-05-21T04:57:59.554Z,94820.00
2023-05-21T04:58:59.558Z,94822.00
2023-05-21T04:59:59.556Z,94822.00
2023-05-21T05:00:59.582Z,94824.00
2023-05-21T05:01:59.571Z,94826.00
2023-05-21T05:02:59.670Z,94828.00
2023-05-21T05:03:59.664Z,94826.00
2023-05-21T05:04:59.596Z,94829.00
2023-05-21T05:05:59.572Z,94829.00
2023-05-21T05:06:59.602Z,94826.00
2023-05-21T05:07:59.573Z,94826.00
2023-05-21T05:08:59.634Z,94822.00
2023-05-21T05:09:59.608Z,94820.00
2023-05-21T05:10:59.622Z,94818.00
2023-05-21T05:11:59.644Z,94820.00
2023-05-21T05:12:59.599Z,94818.00
2023-05-21T05:13:59.630Z,94818.00
2023-05-21T05:14:59.663Z,94818.00
2023-05-21T05:15:59.630Z,94816.00
2023-05-21T05:16:59.756Z,94818.00
2023-05-21T05:17:59.681Z,94816.00
2023-05-21T05:18:59.693Z,94814.00
2023-05-21T05:19:59.652Z,94818.00
2023-05-21T05:20:59.686Z,94818.00
2023-05-21T05:21:59.675Z,94816.00
2023-05-21T05:22:59.691Z,94816.00
2023-05-21T05:23:59.673Z,94814.00
2023-05-21T05:24:59.688Z,94814.00
2023-05-21T05:25:59.691Z,94808.00
2023-05-21T05:26:59.680Z,94808.00
2023-05-21T05:27:59.719Z,94806.00
2023-05-21T05:28:59.677Z,94808.00
2023-05-21T05:29:59.664Z,94806.00
2023-05-21T05:30:59.755Z,94810.00
2023-05-21T05:31:59.710Z,94810.00
2023-05-21T05:32:59.812Z,94810.00
2023-05-21T05:33:59.824Z,94812.00
2023-05-21T05:35:02.120Z,94808.00
2023-05-21T05:36:00.014Z,94808.00
2023-05-21T05:37:00.000Z,94806.00
2023-05-21T05:38:00.020Z,94806.00
2023-05-21T05:39:00.038Z,94806.00
2023-05-21T05:40:00.056Z,94802.00
2023-05-21T05:41:00.028Z,94802.00
2023-05-21T05:42:00.077Z,94800.00
2023-05-21T05:43:00.047Z,94800.00
2023-05-21T05:44:00.074Z,94802.00
2023-05-21T05:45:00.154Z,94800.00
2023-05-21T05:46:00.170Z,94798.00
2023-05-21T05:47:00.132Z,94798.00
2023-05-21T05:48:00.146Z,94796.00
2023-05-21T05:49:00.097Z,94802.00
2023-05-21T05:50:00.097Z,94796.00
2023-05-21T05:51:00.137Z,94796.00
2023-05-21T05:52:00.111Z,94800.00
2023-05-21T05:53:00.109Z,94802.00
2023-05-21T05:54:00.154Z,94804.00
2023-05-21T05:55:00.141Z,94802.00
2023-05-21T05:56:00.118Z,94804.00
2023-05-21T05:57:00.128Z,94804.00
2023-05-21T05:58:00.110Z,94806.00
2023-05-21T05:59:00.130Z,94806.00
2023-05-21T06:00:00.100Z,94810.00
2023-05-21T06:01:00.148Z,94806.00
2023-05-21T06:02:00.159Z,94808.00
2023-05-21T06:03:00.229Z,94806.00
2023-05-21T06:04:00.156Z,94806.00
2023-05-21T06:05:00.191Z,94808.00
2023-05-21T06:06:00.282Z,94808.00
2023-05-21T06:07:00.274Z,94810.00
2023-05-21T06:08:00.337Z,94808.00
2023-05-21T06:09:00.429Z,94810.00
2023-05-21T06:10:00.448Z,94808.00
2023-05-21T06:11:00.507Z,94806.00
2023-05-21T06:12:00.561Z,94804.00
2023-05-21T06:13:00.581Z,94804.00
2023-05-21T06:14:00.657Z,94804.00
2023-05-21T06:15:00.638Z,94804.00
2023-05-21T06:16:00.629Z,94802.00
2023-05-21T06:17:00.665Z,94804.00
2023-05-21T06:18:00.662Z,94802.00
2023-05-21T06:19:00.690Z,94802.00
2023-05-21T06:20:00.692Z,94802.00
2023-05-21T06:21:00.685Z,94800.00
2023-05-21T06:22:00.721Z,94800.00
2023-05-21T06:23:00.736Z,94796.00
2023-05-21T06:24:00.734Z,94792.00
2023-05-21T06:25:00.741Z,94790.00
2023-05-21T06:26:00.809Z,94788.00
2023-05-21T06:27:00.784Z,94788.00
2023-05-21T06:28:00.817Z,94788.00
2023-05-21T06:29:00.834Z,94782.00
2023-05-21T06:30:00.862Z,94784.00
2023-05-21T06:31:00.874Z,94784.00
2023-05-21T06:32:00.900Z,94786.00
2023-05-21T06:33:00.964Z,94790.00
2023-05-21T06:34:01.151Z,94788.00
2023-05-21T06:35:00.996Z,94786.00
2023-05-21T06:36:01.018Z,94784.00
2023-05-21T06:37:01.059Z,94782.00
2023-05-21T06:38:01.099Z,94779.00
2023-05-21T06:39:01.213Z,94782.00
2023-05-21T06:40:01.212Z,94782.00
2023-05-21T06:41:01.241Z,94777.00
2023-05-21T06:42:01.262Z,94781.00
2023-05-21T06:43:01.332Z,94779.00
2023-05-21T06:44:01.360Z,94777.00
2023-05-21T06:45:01.378Z,94779.00
2023-05-21T06:46:01.551Z,94779.00
2023-05-21T06:47:01.474Z,94779.00
2023-05-21T06:48:01.582Z,94779.00
2023-05-21T06:49:01.543Z,94779.00
2023-05-21T06:50:01.589Z,94781.00
2023-05-21T06:51:01.644Z,94784.00
2023-05-21T06:52:01.681Z,94784.00
2023-05-21T06:53:01.735Z,94786.00
2023-05-21T06:54:01.779Z,94784.00
2023-05-21T06:55:01.808Z,94781.00
2023-05-21T06:56:01.843Z,94781.00
2023-05-21T06:57:01.929Z,94782.00
2023-05-21T06:58:01.973Z,94782.00
2023-05-21T06:59:02.006Z,94786.00
2023-05-21T07:00:02.067Z,94784.00
2023-05-21T07:01:02.117Z,94784.00
2023-05-21T07:02:04.481Z,94782.00
2023-05-21T07:03:02.398Z,94782.00
2023-05-21T07:04:02.470Z,94782.00
2023-05-21T07:05:02.450Z,94781.00
2023-05-21T07:06:02.549Z,94782.00
2023-05-21T07:07:02.614Z,94781.00
2023-05-21T07:08:02.643Z,94782.00
2023-05-21T07:09:02.716Z,94781.00
2023-05-21T07:10:02.766Z,94781.00
2023-05-21T07:11:02.832Z,94777.00
2023-05-21T07:12:02.924Z,94777.00
2023-05-21T07:13:02.951Z,94781.00
2023-05-21T07:14:03.033Z,94779.00
2023-05-21T07:15:03.102Z,94779.00
2023-05-21T07:16:03.167Z,94779.00
2023-05-21T07:17:03.346Z,94779.00
2023-05-21T07:18:03.369Z,94775.00
2023-05-21T07:19:03.448Z,94777.00
2023-05-21T07:20:03.409Z,94777.00
2023-05-21T07:21:03.471Z,94775.00
2023-05-21T07:22:03.554Z,94775.00
2023-05-21T07:23:03.585Z,94771.00
2023-05-21T07:24:03.632Z,94767.00
2023-05-21T07:25:03.709Z,94763.00
2023-05-21T07:26:03.764Z,94761.00
2023-05-21T07:27:11.357Z,94761.00
2023-05-21T07:28:06.659Z,94763.00
2023-05-21T07:29:03.807Z,94761.00
2023-05-21T07:30:03.797Z,94761.00
2023-05-21T07:31:03.858Z,94757.00
2023-05-21T07:32:03.801Z,94761.00
2023-05-21T07:33:03.832Z,94755.00
2023-05-21T07:34:03.766Z,94755.00
2023-05-21T07:35:03.781Z,94749.00
2023-05-21T07:36:03.749Z,94753.00
2023-05-21T07:37:03.755Z,94753.00
2023-05-21T07:38:03.775Z,94749.00
2023-05-21T07:39:03.720Z,94751.00
2023-05-21T07:40:03.726Z,94751.00
2023-05-21T07:41:03.725Z,94747.00
2023-05-21T07:42:03.726Z,94743.00
2023-05-21T07:43:03.712Z,94741.00
2023-05-21T07:44:03.701Z,94739.00
2023-05-21T07:45:03.689Z,94735.00
2023-05-21T07:46:03.710Z,94732.00
2023-05-21T07:47:03.681Z,94734.00
2023-05-21T07:48:03.695Z,94739.00
2023-05-21T07:49:03.668Z,94743.00
2023-05-21T07:50:03.693Z,94745.00
2023-05-21T07:51:03.669Z,94743.00
2023-05-21T07:52:03.650Z,94743.00
2023-05-21T07:53:03.735Z,94741.00
2023-05-21T07:54:03.649Z,94739.00
2023-05-21T07:55:03.616Z,94737.00
2023-05-21T07:56:03.604Z,94730.00
2023-05-21T07:57:03.618Z,94726.00
2023-05-21T07:58:03.624Z,94724.00
2023-05-21T07:59:03.589Z,94726.00
2023-05-21T08:00:03.617Z,94726.00
2023-05-21T08:01:03.626Z,94730.00
2023-05-21T08:02:03.583Z,94724.00
2023-05-21T08:03:03.659Z,94724.00
2023-05-21T08:04:03.739Z,94724.00
2023-05-21T08:05:03.612Z,94728.00
2023-05-21T08:06:04.064Z,94728.00
2023-05-21T08:07:03.556Z,94728.00
2023-05-21T08:08:03.577Z,94726.00
2023-05-21T08:09:03.577Z,94724.00
2023-05-21T08:10:03.523Z,94724.00
2023-05-21T08:11:03.520Z,94726.00
2023-05-21T08:12:03.540Z,94726.00
2023-05-21T08:13:03.498Z,94722.00
2023-05-21T08:14:03.499Z,94722.00
2023-05-21T08:15:03.495Z,94724.00
2023-05-21T08:16:03.555Z,94722.00
2023-05-21T08:17:03.504Z,94724.00
2023-05-21T08:18:03.523Z,94722.00
2023-05-21T08:19:03.509Z,94720.00
2023-05-21T08:20:03.453Z,94718.00
2023-05-21T08:21:03.471Z,94718.00
2023-05-21T08:22:03.467Z,94718.00
2023-05-21T08:23:03.429Z,94720.00
2023-05-21T08:24:03.453Z,94720.00
2023-05-21T08:25:03.422Z,94718.00
2023-05-21T08:26:03.405Z,94718.00
2023-05-21T08:27:03.385Z,94714.00
2023-05-21T08:28:03.419Z,94716.00
2023-05-21T08:29:03.398Z,94708.00
2023-05-21T08:30:03.403Z,94710.00
2023-05-21T08:31:03.374Z,94706.00
2023-05-21T08:32:03.457Z,94700.00
2023-05-21T08:33:03.369Z,94700.00
2023-05-21T08:34:03.371Z,94696.00
2023-05-21T08:35:03.358Z,94694.00
2023-05-21T08:36:03.335Z,94696.00
2023-05-21T08:37:03.355Z,94696.00
2023-05-21T08:38:03.349Z,94698.00
2023-05-21T08:39:03.343Z,94696.00
2023-05-21T08:40:03.322Z,94698.00
2023-05-21T08:41:03.335Z,94698.00
2023-05-21T08:42:03.314Z,94696.00
2023-05-21T08:43:03.320Z,94696.00
2023-05-21T08:44:03.328Z,94694.00
2023-05-21T08:45:03.306Z,94692.00
2023-05-21T08:46:03.668Z,94688.00
2023-05-21T08:47:03.294Z,94688.00
2023-05-21T08:48:03.322Z,94688.00
2023-05-21T08:49:03.306Z,94688.00
2023-05-21T08:50:03.313Z,94690.00
2023-05-21T08:51:03.340Z,94690.00
2023-05-21T08:52:03.344Z,94690.00
2023-05-21T08:53:07.469Z,94686.00
2023-05-21T08:54:04.351Z,94686.00
2023-05-21T08:55:03.296Z,94681.00
2023-05-21T08:56:03.330Z,94683.00
2023-05-21T08:57:03.310Z,94683.00
2023-05-21T08:58:03.301Z,94683.00
2023-05-21T08:59:03.327Z,94686.00
2023-05-21T09:00:03.305Z,94686.00
2023-05-21T09:01:03.303Z,94684.00
2023-05-21T09:02:03.274Z,94683.00
2023-05-21T09:03:03.309Z,94683.00
2023-05-21T09:04:16.117Z,94681.00
2023-05-21T09:05:04.271Z,94679.00
2023-05-21T09:06:03.250Z,94679.00
2023-05-21T09:07:03.258Z,94677.00
2023-05-21T09:08:03.218Z,94675.00
2023-05-21T09:09:03.213Z,94673.00
2023-05-21T09:10:03.229Z,94673.00
2023-05-21T09:11:03.206Z,94673.00
2023-05-21T09:12:03.216Z,94679.00
2023-05-21T09:13:03.211Z,94681.00
2023-05-21T09:14:03.227Z,94679.00
2023-05-21T09:15:03.201Z,94681.00
2023-05-21T09:16:03.204Z,94677.00
2023-05-21T09:17:03.232Z,94681.00
2023-05-21T09:18:03.225Z,94681.00
2023-05-21T09:19:04.761Z,94679.00
2023-05-21T09:20:03.166Z,94679.00
2023-05-21T09:21:03.154Z,94679.00
2023-05-21T09:22:03.166Z,94679.00
2023-05-21T09:23:03.146Z,94683.00
2023-05-21T09:24:03.103Z,94683.00
2023-05-21T09:25:03.112Z,94686.00
2023-05-21T09:26:03.123Z,94679.00
2023-05-21T09:27:03.101Z,94681.00
2023-05-21T09:28:03.110Z,94686.00
2023-05-21T09:29:03.164Z,94684.00
2023-05-21T09:30:03.083Z,94686.00
2023-05-21T09:31:03.134Z,94686.00
2023-05-21T09:32:03.056Z,94677.00
2023-05-21T09:33:03.124Z,94679.00
2023-05-21T09:34:03.100Z,94684.00
2023-05-21T09:35:03.108Z,94688.00
2023-05-21T09:36:03.091Z,94690.00
2023-05-21T09:37:04.961Z,94692.00
2023-05-21T09:38:03.086Z,94677.00
2023-05-21T09:39:03.063Z,94683.00
2023-05-21T09:40:03.060Z,94696.00
2023-05-21T09:41:03.037Z,94694.00
2023-05-21T09:42:03.085Z,94698.00
2023-05-21T09:43:03.035Z,94706.00
2023-05-21T09:44:03.046Z,94706.00
2023-05-21T09:45:03.050Z,94700.00
2023-05-21T09:46:03.072Z,94694.00
2023-05-21T09:47:03.004Z,94702.00
2023-05-21T09:48:03.065Z,94698.00
2023-05-21T09:49:02.983Z,94698.00
2023-05-21T09:50:03.001Z,94690.00
2023-05-21T09:51:03.013Z,94688.00
2023-05-21T09:52:02.984Z,94686.00
2023-05-21T09:53:02.993Z,94686.00
2023-05-21T09:54:02.958Z,94690.00
2023-05-21T09:55:02.975Z,94690.00
2023-05-21T09:56:02.975Z,94688.00
2023-05-21T09:57:02.981Z,94692.00
2023-05-21T09:58:02.949Z,94696.00
2023-05-21T09:59:02.954Z,94690.00
2023-05-21T10:00:02.919Z,94688.00
2023-05-21T10:01:02.932Z,94688.00
2023-05-21T10:02:02.978Z,94696.00
2023-05-21T10:03:02.971Z,94690.00
2023-05-21T10:04:02.904Z,94686.00
2023-05-21T10:05:02.883Z,94690.00
2023-05-21T10:06:02.895Z,94694.00
2023-05-21T10:07:02.879Z,94694.00
2023-05-21T10:08:02.866Z,94700.00
2023-05-21T10:09:05.414Z,94694.00
2023-05-21T10:10:02.877Z,94688.00
2023-05-21T10:11:02.874Z,94688.00
2023-05-21T10:12:02.865Z,94684.00
2023-05-21T10:13:02.845Z,94686.00
2023-05-21T10:14:02.822Z,94684.00
2023-05-21T10:15:02.827Z,94684.00
2023-05-21T10:16:02.926Z,94679.00
2023-05-21T10:17:02.847Z,94683.00
2023-05-21T10:18:02.874Z,94681.00
2023-05-21T10:19:02.859Z,94679.00
2023-05-21T10:20:02.798Z,94684.00
2023-05-21T10:21:02.822Z,94700.00
2023-05-21T10:22:02.778Z,94694.00
2023-05-21T10:23:02.785Z,94684.00
2023-05-21T10:24:02.796Z,94681.00
2023-05-21T10:25:02.761Z,94677.00
2023-05-21T10:26:02.751Z,94671.00
2023-05-21T10:27:02.757Z,94679.00
2023-05-21T10:28:02.734Z,94683.00
2023-05-21T10:29:02.729Z,94677.00
2023-05-21T10:30:02.728Z,94669.00
2023-05-21T10:31:02.718Z,94673.00
2023-05-21T10:32:02.764Z,94671.00
2023-05-21T10:33:02.765Z,94675.00
2023-05-21T10:34:02.701Z,94667.00
2023-05-21T10:35:02.787Z,94667.00
2023-05-21T10:36:02.685Z,94669.00
2023-05-21T10:37:02.678Z,94659.00
2023-05-21T10:38:02.688Z,94657.00
2023-05-21T10:39:02.724Z,94659.00
2023-05-21T10:40:02.672Z,94659.00
2023-05-21T10:41:02.664Z,94653.00
2023-05-21T10:42:02.672Z,94651.00
2023-05-21T10:43:02.635Z,94651.00
2023-05-21T10:44:02.629Z,94651.00
2023-05-21T10:45:02.629Z,94655.00
2023-05-21T10:46:02.661Z,94651.00
2023-05-21T10:47:02.626Z,94663.00
2023-05-21T10:48:02.639Z,94653.00
2023-05-21T10:49:02.615Z,94653.00
2023-05-21T10:50:02.598Z,94647.00
2023-05-21T10:51:02.587Z,94649.00
2023-05-21T10:52:02.586Z,94643.00
2023-05-21T10:53:02.558Z,94649.00
2023-05-21T10:54:02.569Z,94647.00
2023-05-21T10:55:02.554Z,94645.00
2023-05-21T10:56:02.577Z,94643.00
2023-05-21T10:57:02.536Z,94645.00
2023-05-21T10:58:02.571Z,94647.00
2023-05-21T10:59:02.558Z,94643.00
2023-05-21T11:00:02.519Z,94645.00
2023-05-21T11:01:02.589Z,94639.00
2023-05-21T11:02:02.577Z,94637.00
2023-05-21T11:03:02.605Z,94643.00
2023-05-21T11:04:02.517Z,94641.00
2023-05-21T11:05:02.473Z,94635.00
2023-05-21T11:06:02.504Z,94633.00
2023-05-21T11:07:02.504Z,94635.00
2023-05-21T11:08:02.505Z,94635.00
2023-05-21T11:09:02.482Z,94641.00
2023-05-21T11:10:02.447Z,94643.00
2023-05-21T11:11:02.465Z,94637.00
2023-05-21T11:12:02.440Z,94635.00
2023-05-21T11:13:02.429Z,94635.00
2023-05-21T11:14:02.468Z,94637.00
2023-05-21T11:15:02.432Z,94635.00
2023-05-21T11:16:02.420Z,94637.00
2023-05-21T11:17:02.444Z,94637.00
2023-05-21T11:18:02.478Z,94639.00
2023-05-21T11:19:02.420Z,94637.00
2023-05-21T11:20:02.395Z,94639.00
2023-05-21T11:21:02.421Z,94637.00
2023-05-21T11:22:02.467Z,94643.00
2023-05-21T11:23:02.501Z,94637.00
2023-05-21T11:24:02.554Z,94643.00
2023-05-21T11:25:02.575Z,94643.00
2023-05-21T11:26:02.622Z,94637.00
2023-05-21T11:27:02.660Z,94637.00
2023-05-21T11:28:02.718Z,94637.00
2023-05-21T11:29:02.773Z,94637.00
2023-05-21T11:30:02.827Z,94635.00
2023-05-21T11:31:02.871Z,94639.00
2023-05-21T11:32:03.013Z,94639.00
2023-05-21T11:33:03.014Z,94637.00
2023-05-21T11:34:03.111Z,94635.00
2023-05-21T11:35:03.041Z,94635.00
2023-05-21T11:36:03.066Z,94637.00
2023-05-21T11:37:03.137Z,94639.00
2023-05-21T11:38:03.191Z,94643.00
2023-05-21T11:39:03.220Z,94633.00
2023-05-21T11:40:03.216Z,94637.00
2023-05-21T11:41:03.293Z,94637.00
2023-05-21T11:42:04.634Z,94635.00
2023-05-21T11:43:03.324Z,94626.00
2023-05-21T11:44:03.395Z,94622.00
2023-05-21T11:45:03.430Z,94626.00